sensor_id;sensor_type;location;lat;lon;timestamp;P1;durP1;ratioP1;P2;durP2;ratioP2
944;SDS011;459;48.676;9.034;2022-11-20T00:01:28;4.90;;;4.50;;
944;SDS011;459;48.676;9.034;2022-11-20T00:03:54;4.30;;;3.93;;
944;SDS011;459;48.676;9.034;2022-11-20T00:06:20;4.30;;;3.90;;
944;SDS011;459;48.676;9.034;2022-11-20T00:08:46;5.00;;;4.20;;
944;SDS011;459;48.676;9.034;2022-11-20T00:11:15;4.40;;;4.00;;
944;SDS011;459;48.676;9.034;2022-11-20T00:13:41;4.60;;;4.20;;
944;SDS011;459;48.676;9.034;2022-11-20T00:16:07;5.60;;;4.13;;
944;SDS011;459;48.676;9.034;2022-11-20T00:18:34;5.40;;;4.90;;
944;SDS011;459;48.676;9.034;2022-11-20T00:21:00;5.20;;;3.80;;
944;SDS011;459;48.676;9.034;2022-11-20T00:23:25;3.90;;;3.60;;
944;SDS011;459;48.676;9.034;2022-11-20T00:25:50;4.33;;;3.67;;
944;SDS011;459;48.676;9.034;2022-11-20T00:28:15;4.07;;;3.70;;
944;SDS011;459;48.676;9.034;2022-11-20T00:30:41;4.40;;;3.67;;
944;SDS011;459;48.676;9.034;2022-11-20T00:33:06;6.47;;;5.37;;
944;SDS011;459;48.676;9.034;2022-11-20T00:35:31;5.80;;;4.20;;
944;SDS011;459;48.676;9.034;2022-11-20T00:37:56;3.90;;;3.60;;
944;SDS011;459;48.676;9.034;2022-11-20T00:40:21;5.10;;;4.20;;
944;SDS011;459;48.676;9.034;2022-11-20T00:42:52;3.77;;;3.40;;
944;SDS011;459;48.676;9.034;2022-11-20T00:45:17;5.73;;;3.70;;
944;SDS011;459;48.676;9.034;2022-11-20T00:47:43;5.47;;;4.97;;
944;SDS011;459;48.676;9.034;2022-11-20T00:50:08;5.50;;;4.87;;
944;SDS011;459;48.676;9.034;2022-11-20T00:52:33;4.03;;;3.73;;
944;SDS011;459;48.676;9.034;2022-11-20T00:54:58;3.83;;;3.43;;
944;SDS011;459;48.676;9.034;2022-11-20T00:57:23;3.67;;;3.37;;
944;SDS011;459;48.676;9.034;2022-11-20T00:59:49;5.03;;;3.93;;
944;SDS011;459;48.676;9.034;2022-11-20T01:02:14;5.00;;;4.50;;
944;SDS011;459;48.676;9.034;2022-11-20T01:04:41;4.90;;;3.70;;
944;SDS011;459;48.676;9.034;2022-11-20T01:07:06;5.67;;;4.50;;
944;SDS011;459;48.676;9.034;2022-11-20T01:09:31;5.30;;;4.80;;
944;SDS011;459;48.676;9.034;2022-11-20T01:11:57;4.23;;;3.70;;
944;SDS011;459;48.676;9.034;2022-11-20T01:14:22;4.53;;;3.00;;
944;SDS011;459;48.676;9.034;2022-11-20T01:16:48;5.03;;;3.83;;
944;SDS011;459;48.676;9.034;2022-11-20T01:19:14;4.33;;;3.60;;
944;SDS011;459;48.676;9.034;2022-11-20T01:21:41;6.50;;;4.37;;
944;SDS011;459;48.676;9.034;2022-11-20T01:24:09;5.73;;;4.60;;
944;SDS011;459;48.676;9.034;2022-11-20T01:26:36;5.80;;;4.33;;
944;SDS011;459;48.676;9.034;2022-11-20T01:29:02;6.80;;;4.90;;
944;SDS011;459;48.676;9.034;2022-11-20T01:34:12;4.47;;;4.03;;
944;SDS011;459;48.676;9.034;2022-11-20T01:36:38;8.87;;;4.80;;
944;SDS011;459;48.676;9.034;2022-11-20T01:39:05;5.43;;;4.57;;
944;SDS011;459;48.676;9.034;2022-11-20T01:41:31;7.83;;;6.10;;
944;SDS011;459;48.676;9.034;2022-11-20T01:44:16;11.27;;;10.07;;
944;SDS011;459;48.676;9.034;2022-11-20T01:49:37;17.83;;;16.03;;
944;SDS011;459;48.676;9.034;2022-11-20T01:52:07;7.83;;;7.13;;
944;SDS011;459;48.676;9.034;2022-11-20T01:54:36;5.57;;;4.93;;
944;SDS011;459;48.676;9.034;2022-11-20T01:57:04;4.90;;;4.37;;
944;SDS011;459;48.676;9.034;2022-11-20T01:59:31;3.43;;;3.13;;
944;SDS011;459;48.676;9.034;2022-11-20T02:01:56;4.90;;;4.40;;
944;SDS011;459;48.676;9.034;2022-11-20T02:04:21;3.80;;;3.03;;
944;SDS011;459;48.676;9.034;2022-11-20T02:06:53;3.80;;;3.50;;
944;SDS011;459;48.676;9.034;2022-11-20T02:09:21;4.63;;;3.63;;
944;SDS011;459;48.676;9.034;2022-11-20T02:11:46;3.63;;;3.33;;
944;SDS011;459;48.676;9.034;2022-11-20T02:14:11;4.80;;;4.30;;
944;SDS011;459;48.676;9.034;2022-11-20T02:16:37;4.20;;;3.80;;
944;SDS011;459;48.676;9.034;2022-11-20T02:19:06;5.73;;;5.00;;
944;SDS011;459;48.676;9.034;2022-11-20T02:21:49;5.20;;;4.60;;
944;SDS011;459;48.676;9.034;2022-11-20T02:24:18;6.27;;;5.13;;
944;SDS011;459;48.676;9.034;2022-11-20T02:29:08;5.40;;;4.90;;
944;SDS011;459;48.676;9.034;2022-11-20T02:31:35;6.47;;;5.47;;
944;SDS011;459;48.676;9.034;2022-11-20T02:34:01;6.47;;;4.90;;
944;SDS011;459;48.676;9.034;2022-11-20T02:36:26;5.93;;;4.67;;
944;SDS011;459;48.676;9.034;2022-11-20T02:38:52;8.00;;;5.93;;
944;SDS011;459;48.676;9.034;2022-11-20T02:41:17;7.10;;;5.33;;
944;SDS011;459;48.676;9.034;2022-11-20T02:43:42;8.50;;;6.67;;
944;SDS011;459;48.676;9.034;2022-11-20T02:46:08;7.27;;;6.50;;
944;SDS011;459;48.676;9.034;2022-11-20T02:48:33;5.90;;;5.30;;
944;SDS011;459;48.676;9.034;2022-11-20T02:50:58;6.90;;;6.20;;
944;SDS011;459;48.676;9.034;2022-11-20T02:53:23;8.53;;;6.13;;
944;SDS011;459;48.676;9.034;2022-11-20T02:55:49;6.53;;;5.90;;
944;SDS011;459;48.676;9.034;2022-11-20T02:58:14;7.50;;;5.80;;
944;SDS011;459;48.676;9.034;2022-11-20T03:00:39;7.47;;;5.83;;
944;SDS011;459;48.676;9.034;2022-11-20T03:03:04;7.30;;;6.57;;
944;SDS011;459;48.676;9.034;2022-11-20T03:05:29;8.80;;;6.10;;
944;SDS011;459;48.676;9.034;2022-11-20T03:07:55;8.10;;;7.30;;
944;SDS011;459;48.676;9.034;2022-11-20T03:10:20;8.50;;;7.60;;
944;SDS011;459;48.676;9.034;2022-11-20T03:12:45;7.53;;;6.33;;
944;SDS011;459;48.676;9.034;2022-11-20T03:15:10;10.90;;;5.57;;
944;SDS011;459;48.676;9.034;2022-11-20T03:17:36;8.87;;;6.63;;
944;SDS011;459;48.676;9.034;2022-11-20T03:20:02;9.53;;;6.17;;
944;SDS011;459;48.676;9.034;2022-11-20T03:22:31;9.83;;;5.93;;
944;SDS011;459;48.676;9.034;2022-11-20T03:24:56;9.40;;;6.43;;
944;SDS011;459;48.676;9.034;2022-11-20T03:27:21;3.40;;;3.10;;
944;SDS011;459;48.676;9.034;2022-11-20T03:29:46;5.23;;;4.73;;
944;SDS011;459;48.676;9.034;2022-11-20T03:32:11;8.93;;;6.53;;
944;SDS011;459;48.676;9.034;2022-11-20T03:34:37;5.93;;;4.90;;
944;SDS011;459;48.676;9.034;2022-11-20T03:37:02;6.10;;;5.50;;
944;SDS011;459;48.676;9.034;2022-11-20T03:39:27;9.00;;;6.57;;
944;SDS011;459;48.676;9.034;2022-11-20T03:41:52;7.43;;;6.60;;
944;SDS011;459;48.676;9.034;2022-11-20T03:44:17;6.57;;;5.90;;
944;SDS011;459;48.676;9.034;2022-11-20T03:46:45;5.87;;;5.00;;
944;SDS011;459;48.676;9.034;2022-11-20T03:49:10;9.53;;;7.20;;
944;SDS011;459;48.676;9.034;2022-11-20T03:51:36;7.80;;;5.20;;
944;SDS011;459;48.676;9.034;2022-11-20T03:54:05;6.70;;;5.97;;
944;SDS011;459;48.676;9.034;2022-11-20T03:56:31;6.77;;;6.07;;
944;SDS011;459;48.676;9.034;2022-11-20T03:58:57;5.73;;;5.10;;
944;SDS011;459;48.676;9.034;2022-11-20T04:01:30;5.97;;;5.37;;
944;SDS011;459;48.676;9.034;2022-11-20T04:03:55;7.60;;;6.80;;
944;SDS011;459;48.676;9.034;2022-11-20T04:06:22;6.00;;;5.30;;
944;SDS011;459;48.676;9.034;2022-11-20T04:08:48;4.60;;;4.17;;
944;SDS011;459;48.676;9.034;2022-11-20T04:11:20;6.80;;;5.60;;
944;SDS011;459;48.676;9.034;2022-11-20T04:13:46;5.53;;;4.20;;
944;SDS011;459;48.676;9.034;2022-11-20T04:16:12;6.23;;;5.43;;
944;SDS011;459;48.676;9.034;2022-11-20T04:18:37;6.10;;;5.50;;
944;SDS011;459;48.676;9.034;2022-11-20T04:21:03;5.90;;;4.80;;
944;SDS011;459;48.676;9.034;2022-11-20T04:23:28;8.60;;;4.70;;
944;SDS011;459;48.676;9.034;2022-11-20T04:25:54;6.23;;;4.97;;
944;SDS011;459;48.676;9.034;2022-11-20T04:28:19;6.10;;;5.10;;
944;SDS011;459;48.676;9.034;2022-11-20T04:30:44;6.40;;;5.80;;
944;SDS011;459;48.676;9.034;2022-11-20T04:33:10;4.33;;;3.90;;
944;SDS011;459;48.676;9.034;2022-11-20T04:35:36;4.80;;;4.40;;
944;SDS011;459;48.676;9.034;2022-11-20T04:38:01;5.40;;;4.57;;
944;SDS011;459;48.676;9.034;2022-11-20T04:40:30;4.70;;;4.13;;
944;SDS011;459;48.676;9.034;2022-11-20T04:42:55;5.33;;;4.80;;
944;SDS011;459;48.676;9.034;2022-11-20T04:45:21;6.40;;;4.03;;
944;SDS011;459;48.676;9.034;2022-11-20T04:47:46;7.07;;;4.63;;
944;SDS011;459;48.676;9.034;2022-11-20T04:50:12;6.10;;;5.50;;
944;SDS011;459;48.676;9.034;2022-11-20T04:52:37;5.37;;;4.37;;
944;SDS011;459;48.676;9.034;2022-11-20T04:55:02;3.83;;;3.53;;
944;SDS011;459;48.676;9.034;2022-11-20T04:57:27;5.30;;;4.80;;
944;SDS011;459;48.676;9.034;2022-11-20T04:59:52;6.10;;;4.43;;
944;SDS011;459;48.676;9.034;2022-11-20T05:02:18;5.50;;;4.40;;
944;SDS011;459;48.676;9.034;2022-11-20T05:04:43;4.63;;;4.20;;
944;SDS011;459;48.676;9.034;2022-11-20T05:07:08;5.33;;;4.30;;
944;SDS011;459;48.676;9.034;2022-11-20T05:09:33;5.83;;;4.50;;
944;SDS011;459;48.676;9.034;2022-11-20T05:11:58;4.20;;;3.80;;
944;SDS011;459;48.676;9.034;2022-11-20T05:14:24;3.77;;;3.37;;
944;SDS011;459;48.676;9.034;2022-11-20T05:16:49;3.87;;;3.50;;
944;SDS011;459;48.676;9.034;2022-11-20T05:19:14;4.30;;;3.90;;
944;SDS011;459;48.676;9.034;2022-11-20T05:21:39;3.80;;;3.20;;
944;SDS011;459;48.676;9.034;2022-11-20T05:24:04;3.13;;;2.83;;
944;SDS011;459;48.676;9.034;2022-11-20T05:26:30;5.33;;;3.47;;
944;SDS011;459;48.676;9.034;2022-11-20T05:28:56;6.13;;;5.10;;
944;SDS011;459;48.676;9.034;2022-11-20T05:31:22;5.70;;;4.37;;
944;SDS011;459;48.676;9.034;2022-11-20T05:33:47;3.43;;;3.13;;
944;SDS011;459;48.676;9.034;2022-11-20T05:36:13;4.63;;;4.23;;
944;SDS011;459;48.676;9.034;2022-11-20T05:38:38;3.53;;;3.23;;
944;SDS011;459;48.676;9.034;2022-11-20T05:43:35;4.60;;;4.20;;
944;SDS011;459;48.676;9.034;2022-11-20T05:46:01;6.23;;;4.30;;
944;SDS011;459;48.676;9.034;2022-11-20T05:48:26;3.80;;;3.10;;
944;SDS011;459;48.676;9.034;2022-11-20T05:50:51;4.60;;;3.80;;
944;SDS011;459;48.676;9.034;2022-11-20T05:53:16;5.23;;;2.90;;
944;SDS011;459;48.676;9.034;2022-11-20T05:55:41;2.77;;;2.53;;
944;SDS011;459;48.676;9.034;2022-11-20T05:58:07;4.23;;;3.83;;
944;SDS011;459;48.676;9.034;2022-11-20T06:00:32;3.07;;;2.73;;
944;SDS011;459;48.676;9.034;2022-11-20T06:02:57;3.53;;;3.23;;
944;SDS011;459;48.676;9.034;2022-11-20T06:05:22;2.50;;;2.30;;
944;SDS011;459;48.676;9.034;2022-11-20T06:07:47;2.70;;;2.50;;
944;SDS011;459;48.676;9.034;2022-11-20T06:10:13;2.73;;;2.53;;
944;SDS011;459;48.676;9.034;2022-11-20T06:12:38;4.07;;;3.00;;
944;SDS011;459;48.676;9.034;2022-11-20T06:15:04;3.03;;;2.40;;
944;SDS011;459;48.676;9.034;2022-11-20T06:17:29;4.30;;;3.90;;
944;SDS011;459;48.676;9.034;2022-11-20T06:19:55;4.70;;;4.20;;
944;SDS011;459;48.676;9.034;2022-11-20T06:22:20;6.37;;;3.27;;
944;SDS011;459;48.676;9.034;2022-11-20T06:24:45;4.13;;;3.50;;
944;SDS011;459;48.676;9.034;2022-11-20T06:27:10;4.30;;;3.90;;
944;SDS011;459;48.676;9.034;2022-11-20T06:29:35;5.77;;;5.00;;
944;SDS011;459;48.676;9.034;2022-11-20T06:32:01;5.63;;;4.50;;
944;SDS011;459;48.676;9.034;2022-11-20T06:34:26;4.13;;;3.73;;
944;SDS011;459;48.676;9.034;2022-11-20T06:36:51;5.23;;;4.73;;
944;SDS011;459;48.676;9.034;2022-11-20T06:39:16;4.80;;;4.40;;
944;SDS011;459;48.676;9.034;2022-11-20T06:41:42;4.17;;;3.50;;
944;SDS011;459;48.676;9.034;2022-11-20T06:44:07;4.57;;;3.97;;
944;SDS011;459;48.676;9.034;2022-11-20T06:46:32;4.77;;;4.33;;
944;SDS011;459;48.676;9.034;2022-11-20T06:48:57;8.07;;;3.90;;
944;SDS011;459;48.676;9.034;2022-11-20T06:51:23;4.50;;;4.10;;
944;SDS011;459;48.676;9.034;2022-11-20T06:53:48;5.57;;;3.90;;
944;SDS011;459;48.676;9.034;2022-11-20T06:56:13;3.80;;;3.40;;
944;SDS011;459;48.676;9.034;2022-11-20T06:58:38;10.20;;;6.97;;
944;SDS011;459;48.676;9.034;2022-11-20T07:01:05;13.07;;;8.63;;
944;SDS011;459;48.676;9.034;2022-11-20T07:03:31;29.53;;;12.30;;
944;SDS011;459;48.676;9.034;2022-11-20T07:05:56;15.27;;;9.93;;
944;SDS011;459;48.676;9.034;2022-11-20T07:08:22;8.20;;;5.07;;
944;SDS011;459;48.676;9.034;2022-11-20T07:10:47;5.87;;;4.90;;
944;SDS011;459;48.676;9.034;2022-11-20T07:13:12;3.67;;;3.37;;
944;SDS011;459;48.676;9.034;2022-11-20T07:15:38;3.90;;;3.13;;
944;SDS011;459;48.676;9.034;2022-11-20T07:18:03;3.70;;;3.40;;
944;SDS011;459;48.676;9.034;2022-11-20T07:20:28;5.93;;;5.33;;
944;SDS011;459;48.676;9.034;2022-11-20T07:22:54;3.70;;;2.60;;
944;SDS011;459;48.676;9.034;2022-11-20T07:25:19;4.90;;;4.50;;
944;SDS011;459;48.676;9.034;2022-11-20T07:27:45;4.13;;;3.73;;
944;SDS011;459;48.676;9.034;2022-11-20T07:30:10;6.40;;;3.30;;
944;SDS011;459;48.676;9.034;2022-11-20T07:32:35;3.40;;;3.03;;
944;SDS011;459;48.676;9.034;2022-11-20T07:35:00;3.37;;;3.07;;
944;SDS011;459;48.676;9.034;2022-11-20T07:37:26;3.47;;;3.17;;
944;SDS011;459;48.676;9.034;2022-11-20T07:39:51;4.20;;;3.80;;
944;SDS011;459;48.676;9.034;2022-11-20T07:42:16;3.43;;;3.13;;
944;SDS011;459;48.676;9.034;2022-11-20T07:44:41;3.63;;;3.33;;
944;SDS011;459;48.676;9.034;2022-11-20T07:47:06;3.87;;;3.27;;
944;SDS011;459;48.676;9.034;2022-11-20T07:49:32;1.80;;;1.40;;
944;SDS011;459;48.676;9.034;2022-11-20T07:51:57;3.87;;;2.90;;
944;SDS011;459;48.676;9.034;2022-11-20T07:54:22;2.90;;;2.70;;
944;SDS011;459;48.676;9.034;2022-11-20T07:56:48;3.43;;;3.03;;
944;SDS011;459;48.676;9.034;2022-11-20T07:59:13;3.33;;;3.03;;
944;SDS011;459;48.676;9.034;2022-11-20T08:01:38;3.20;;;2.83;;
944;SDS011;459;48.676;9.034;2022-11-20T08:04:04;2.80;;;2.60;;
944;SDS011;459;48.676;9.034;2022-11-20T08:06:29;4.17;;;3.80;;
944;SDS011;459;48.676;9.034;2022-11-20T08:08:55;5.27;;;3.67;;
944;SDS011;459;48.676;9.034;2022-11-20T08:11:20;3.17;;;2.87;;
944;SDS011;459;48.676;9.034;2022-11-20T08:14:04;4.63;;;3.23;;
944;SDS011;459;48.676;9.034;2022-11-20T08:16:38;4.00;;;2.63;;
944;SDS011;459;48.676;9.034;2022-11-20T08:19:04;2.67;;;2.10;;
944;SDS011;459;48.676;9.034;2022-11-20T08:21:30;3.37;;;2.50;;
944;SDS011;459;48.676;9.034;2022-11-20T08:23:55;3.00;;;2.50;;
944;SDS011;459;48.676;9.034;2022-11-20T08:26:21;3.47;;;2.77;;
944;SDS011;459;48.676;9.034;2022-11-20T08:28:47;4.00;;;3.70;;
944;SDS011;459;48.676;9.034;2022-11-20T08:31:12;3.73;;;3.40;;
944;SDS011;459;48.676;9.034;2022-11-20T08:33:37;3.67;;;3.37;;
944;SDS011;459;48.676;9.034;2022-11-20T08:36:03;2.87;;;2.40;;
944;SDS011;459;48.676;9.034;2022-11-20T08:38:29;2.83;;;2.63;;
944;SDS011;459;48.676;9.034;2022-11-20T08:41:01;2.50;;;2.30;;
944;SDS011;459;48.676;9.034;2022-11-20T08:43:45;3.30;;;3.10;;
944;SDS011;459;48.676;9.034;2022-11-20T08:46:10;3.63;;;2.43;;
944;SDS011;459;48.676;9.034;2022-11-20T08:48:36;2.07;;;1.67;;
944;SDS011;459;48.676;9.034;2022-11-20T08:51:01;2.50;;;2.30;;
944;SDS011;459;48.676;9.034;2022-11-20T08:53:26;2.50;;;2.30;;
944;SDS011;459;48.676;9.034;2022-11-20T08:55:52;1.70;;;1.50;;
944;SDS011;459;48.676;9.034;2022-11-20T08:58:17;2.17;;;1.97;;
944;SDS011;459;48.676;9.034;2022-11-20T09:00:42;1.80;;;1.70;;
944;SDS011;459;48.676;9.034;2022-11-20T09:03:08;2.03;;;1.93;;
944;SDS011;459;48.676;9.034;2022-11-20T09:05:33;1.70;;;1.60;;
944;SDS011;459;48.676;9.034;2022-11-20T09:07:58;2.23;;;2.00;;
944;SDS011;459;48.676;9.034;2022-11-20T09:10:23;2.80;;;1.77;;
944;SDS011;459;48.676;9.034;2022-11-20T09:12:49;1.60;;;1.50;;
944;SDS011;459;48.676;9.034;2022-11-20T09:15:14;1.57;;;1.33;;
944;SDS011;459;48.676;9.034;2022-11-20T09:17:40;1.53;;;1.23;;
944;SDS011;459;48.676;9.034;2022-11-20T09:20:05;1.30;;;1.20;;
944;SDS011;459;48.676;9.034;2022-11-20T09:22:30;1.03;;;0.93;;
944;SDS011;459;48.676;9.034;2022-11-20T09:24:55;1.10;;;0.90;;
944;SDS011;459;48.676;9.034;2022-11-20T09:27:20;1.87;;;1.40;;
944;SDS011;459;48.676;9.034;2022-11-20T09:29:46;1.60;;;1.50;;
944;SDS011;459;48.676;9.034;2022-11-20T09:32:11;1.53;;;1.43;;
944;SDS011;459;48.676;9.034;2022-11-20T09:34:36;1.30;;;1.20;;
944;SDS011;459;48.676;9.034;2022-11-20T09:37:02;1.00;;;0.90;;
944;SDS011;459;48.676;9.034;2022-11-20T09:39:27;1.20;;;1.07;;
944;SDS011;459;48.676;9.034;2022-11-20T09:47:16;1.10;;;1.00;;
944;SDS011;459;48.676;9.034;2022-11-20T09:54:46;1.30;;;0.90;;
944;SDS011;459;48.676;9.034;2022-11-20T09:57:13;1.30;;;1.20;;
944;SDS011;459;48.676;9.034;2022-11-20T09:59:43;0.70;;;0.70;;
944;SDS011;459;48.676;9.034;2022-11-20T10:02:14;1.20;;;1.00;;
944;SDS011;459;48.676;9.034;2022-11-20T10:04:40;0.80;;;0.70;;
944;SDS011;459;48.676;9.034;2022-11-20T10:07:12;1.37;;;1.10;;
944;SDS011;459;48.676;9.034;2022-11-20T10:09:39;1.40;;;1.10;;
944;SDS011;459;48.676;9.034;2022-11-20T10:19:56;1.07;;;0.90;;
944;SDS011;459;48.676;9.034;2022-11-20T10:22:36;1.57;;;0.70;;
944;SDS011;459;48.676;9.034;2022-11-20T10:25:18;0.80;;;0.80;;
944;SDS011;459;48.676;9.034;2022-11-20T10:27:47;1.13;;;0.83;;
944;SDS011;459;48.676;9.034;2022-11-20T10:30:16;1.63;;;1.17;;
944;SDS011;459;48.676;9.034;2022-11-20T10:32:42;1.67;;;1.10;;
944;SDS011;459;48.676;9.034;2022-11-20T10:35:22;1.00;;;0.90;;
944;SDS011;459;48.676;9.034;2022-11-20T10:37:54;1.77;;;1.40;;
944;SDS011;459;48.676;9.034;2022-11-20T10:40:28;1.33;;;1.23;;
944;SDS011;459;48.676;9.034;2022-11-20T10:42:56;0.87;;;0.83;;
944;SDS011;459;48.676;9.034;2022-11-20T10:47:51;1.30;;;1.10;;
944;SDS011;459;48.676;9.034;2022-11-20T10:50:18;1.33;;;1.23;;
944;SDS011;459;48.676;9.034;2022-11-20T10:53:04;1.93;;;1.40;;
944;SDS011;459;48.676;9.034;2022-11-20T10:55:40;1.50;;;1.40;;
944;SDS011;459;48.676;9.034;2022-11-20T11:00:40;2.43;;;1.70;;
944;SDS011;459;48.676;9.034;2022-11-20T11:03:20;2.47;;;2.27;;
944;SDS011;459;48.676;9.034;2022-11-20T11:05:48;2.47;;;2.27;;
944;SDS011;459;48.676;9.034;2022-11-20T11:08:15;1.80;;;1.70;;
944;SDS011;459;48.676;9.034;2022-11-20T11:13:19;2.97;;;1.70;;
944;SDS011;459;48.676;9.034;2022-11-20T11:15:44;3.10;;;1.90;;
944;SDS011;459;48.676;9.034;2022-11-20T11:18:10;2.37;;;1.87;;
944;SDS011;459;48.676;9.034;2022-11-20T11:20:35;1.73;;;1.63;;
944;SDS011;459;48.676;9.034;2022-11-20T11:23:01;4.13;;;1.87;;
944;SDS011;459;48.676;9.034;2022-11-20T11:27:52;2.87;;;1.50;;
944;SDS011;459;48.676;9.034;2022-11-20T11:30:20;2.13;;;1.93;;
944;SDS011;459;48.676;9.034;2022-11-20T11:32:45;2.50;;;1.80;;
944;SDS011;459;48.676;9.034;2022-11-20T11:35:27;2.60;;;1.77;;
944;SDS011;459;48.676;9.034;2022-11-20T11:37:53;3.73;;;2.30;;
944;SDS011;459;48.676;9.034;2022-11-20T11:40:19;2.17;;;1.80;;
944;SDS011;459;48.676;9.034;2022-11-20T11:42:53;2.17;;;1.97;;
944;SDS011;459;48.676;9.034;2022-11-20T11:45:19;2.13;;;1.90;;
944;SDS011;459;48.676;9.034;2022-11-20T11:47:48;1.50;;;1.30;;
944;SDS011;459;48.676;9.034;2022-11-20T11:50:21;1.63;;;1.40;;
944;SDS011;459;48.676;9.034;2022-11-20T11:52:49;1.60;;;1.50;;
944;SDS011;459;48.676;9.034;2022-11-20T11:55:19;1.50;;;1.40;;
944;SDS011;459;48.676;9.034;2022-11-20T12:00:33;6.13;;;1.40;;
944;SDS011;459;48.676;9.034;2022-11-20T12:03:03;1.03;;;1.00;;
944;SDS011;459;48.676;9.034;2022-11-20T12:05:38;2.67;;;0.97;;
944;SDS011;459;48.676;9.034;2022-11-20T12:08:05;2.40;;;1.20;;
944;SDS011;459;48.676;9.034;2022-11-20T12:15:49;1.20;;;0.90;;
944;SDS011;459;48.676;9.034;2022-11-20T12:18:15;2.37;;;1.57;;
944;SDS011;459;48.676;9.034;2022-11-20T12:20:43;1.70;;;1.47;;
944;SDS011;459;48.676;9.034;2022-11-20T12:23:26;1.10;;;1.00;;
944;SDS011;459;48.676;9.034;2022-11-20T12:25:53;3.10;;;1.50;;
944;SDS011;459;48.676;9.034;2022-11-20T12:28:28;2.27;;;1.30;;
944;SDS011;459;48.676;9.034;2022-11-20T12:31:10;2.63;;;1.10;;
944;SDS011;459;48.676;9.034;2022-11-20T12:33:53;1.23;;;1.13;;
944;SDS011;459;48.676;9.034;2022-11-20T12:47:31;1.60;;;1.10;;
944;SDS011;459;48.676;9.034;2022-11-20T12:52:51;2.30;;;1.00;;
944;SDS011;459;48.676;9.034;2022-11-20T12:55:25;1.50;;;1.30;;
944;SDS011;459;48.676;9.034;2022-11-20T12:57:58;1.00;;;0.80;;
944;SDS011;459;48.676;9.034;2022-11-20T13:00:25;0.87;;;0.60;;
944;SDS011;459;48.676;9.034;2022-11-20T13:03:00;0.90;;;0.80;;
944;SDS011;459;48.676;9.034;2022-11-20T13:05:31;0.63;;;0.40;;
944;SDS011;459;48.676;9.034;2022-11-20T13:07:59;1.33;;;1.07;;
944;SDS011;459;48.676;9.034;2022-11-20T13:12:53;1.30;;;1.20;;
944;SDS011;459;48.676;9.034;2022-11-20T13:15:35;1.80;;;1.30;;
944;SDS011;459;48.676;9.034;2022-11-20T13:18:01;2.80;;;1.30;;
944;SDS011;459;48.676;9.034;2022-11-20T13:20:27;3.43;;;1.33;;
944;SDS011;459;48.676;9.034;2022-11-20T13:22:55;1.00;;;0.90;;
944;SDS011;459;48.676;9.034;2022-11-20T13:25:23;1.27;;;1.17;;
944;SDS011;459;48.676;9.034;2022-11-20T13:27:48;0.90;;;0.77;;
944;SDS011;459;48.676;9.034;2022-11-20T13:30:15;1.07;;;0.70;;
944;SDS011;459;48.676;9.034;2022-11-20T13:32:49;2.03;;;1.20;;
944;SDS011;459;48.676;9.034;2022-11-20T13:35:23;1.20;;;1.03;;
944;SDS011;459;48.676;9.034;2022-11-20T13:37:48;1.40;;;1.30;;
944;SDS011;459;48.676;9.034;2022-11-20T13:40:23;7.50;;;1.10;;
944;SDS011;459;48.676;9.034;2022-11-20T13:47:49;1.97;;;1.10;;
944;SDS011;459;48.676;9.034;2022-11-20T13:50:14;1.93;;;1.10;;
944;SDS011;459;48.676;9.034;2022-11-20T13:52:55;3.23;;;1.10;;
944;SDS011;459;48.676;9.034;2022-11-20T14:01:19;1.53;;;1.10;;
944;SDS011;459;48.676;9.034;2022-11-20T14:03:45;1.57;;;0.90;;
944;SDS011;459;48.676;9.034;2022-11-20T14:06:12;1.17;;;1.07;;
944;SDS011;459;48.676;9.034;2022-11-20T14:08:40;0.80;;;0.80;;
944;SDS011;459;48.676;9.034;2022-11-20T14:13:54;6.10;;;1.70;;
944;SDS011;459;48.676;9.034;2022-11-20T14:16:20;1.73;;;1.60;;
944;SDS011;459;48.676;9.034;2022-11-20T14:18:46;1.67;;;1.20;;
944;SDS011;459;48.676;9.034;2022-11-20T14:21:11;1.50;;;1.40;;
944;SDS011;459;48.676;9.034;2022-11-20T14:23:36;4.03;;;1.53;;
944;SDS011;459;48.676;9.034;2022-11-20T14:26:01;1.80;;;1.50;;
944;SDS011;459;48.676;9.034;2022-11-20T14:28:27;2.27;;;1.70;;
944;SDS011;459;48.676;9.034;2022-11-20T14:30:53;2.10;;;1.90;;
944;SDS011;459;48.676;9.034;2022-11-20T14:33:18;7.27;;;1.70;;
944;SDS011;459;48.676;9.034;2022-11-20T14:35:48;2.03;;;1.83;;
944;SDS011;459;48.676;9.034;2022-11-20T14:38:15;3.53;;;1.57;;
944;SDS011;459;48.676;9.034;2022-11-20T14:40:41;1.70;;;1.60;;
944;SDS011;459;48.676;9.034;2022-11-20T14:43:21;3.23;;;1.40;;
944;SDS011;459;48.676;9.034;2022-11-20T14:45:55;2.97;;;1.60;;
944;SDS011;459;48.676;9.034;2022-11-20T14:48:23;3.90;;;1.77;;
944;SDS011;459;48.676;9.034;2022-11-20T14:50:49;2.87;;;1.50;;
944;SDS011;459;48.676;9.034;2022-11-20T14:53:14;2.37;;;1.80;;
944;SDS011;459;48.676;9.034;2022-11-20T14:55:53;6.27;;;1.60;;
944;SDS011;459;48.676;9.034;2022-11-20T14:58:20;3.30;;;1.40;;
944;SDS011;459;48.676;9.034;2022-11-20T15:00:54;3.33;;;1.20;;
944;SDS011;459;48.676;9.034;2022-11-20T15:03:19;1.50;;;1.40;;
944;SDS011;459;48.676;9.034;2022-11-20T15:05:46;2.57;;;1.53;;
944;SDS011;459;48.676;9.034;2022-11-20T15:08:13;1.97;;;1.33;;
944;SDS011;459;48.676;9.034;2022-11-20T15:10:38;0.70;;;0.70;;
944;SDS011;459;48.676;9.034;2022-11-20T15:13:13;1.33;;;1.23;;
944;SDS011;459;48.676;9.034;2022-11-20T15:18:14;1.30;;;1.20;;
944;SDS011;459;48.676;9.034;2022-11-20T15:20:40;2.13;;;1.90;;
944;SDS011;459;48.676;9.034;2022-11-20T15:23:13;1.70;;;1.40;;
944;SDS011;459;48.676;9.034;2022-11-20T15:25:38;2.40;;;1.60;;
944;SDS011;459;48.676;9.034;2022-11-20T15:28:04;4.00;;;2.57;;
944;SDS011;459;48.676;9.034;2022-11-20T15:30:29;2.57;;;2.20;;
944;SDS011;459;48.676;9.034;2022-11-20T15:32:55;2.73;;;1.80;;
944;SDS011;459;48.676;9.034;2022-11-20T15:35:20;2.13;;;1.93;;
944;SDS011;459;48.676;9.034;2022-11-20T15:37:45;1.73;;;1.60;;
944;SDS011;459;48.676;9.034;2022-11-20T15:40:10;2.10;;;1.77;;
944;SDS011;459;48.676;9.034;2022-11-20T15:42:35;2.50;;;2.30;;
944;SDS011;459;48.676;9.034;2022-11-20T15:45:01;2.70;;;2.23;;
944;SDS011;459;48.676;9.034;2022-11-20T15:47:33;1.70;;;1.33;;
944;SDS011;459;48.676;9.034;2022-11-20T15:49:58;2.10;;;1.90;;
944;SDS011;459;48.676;9.034;2022-11-20T15:52:24;5.30;;;2.43;;
944;SDS011;459;48.676;9.034;2022-11-20T15:54:49;1.90;;;1.70;;
944;SDS011;459;48.676;9.034;2022-11-20T15:57:14;2.47;;;1.97;;
944;SDS011;459;48.676;9.034;2022-11-20T15:59:39;1.80;;;1.70;;
944;SDS011;459;48.676;9.034;2022-11-20T16:02:13;3.20;;;1.67;;
944;SDS011;459;48.676;9.034;2022-11-20T16:04:38;3.63;;;2.50;;
944;SDS011;459;48.676;9.034;2022-11-20T16:07:04;4.53;;;2.53;;
944;SDS011;459;48.676;9.034;2022-11-20T16:09:29;2.20;;;2.00;;
944;SDS011;459;48.676;9.034;2022-11-20T16:11:54;3.27;;;1.90;;
944;SDS011;459;48.676;9.034;2022-11-20T16:14:19;1.90;;;1.80;;
944;SDS011;459;48.676;9.034;2022-11-20T16:17:03;1.60;;;1.50;;
944;SDS011;459;48.676;9.034;2022-11-20T16:19:28;3.07;;;2.80;;
944;SDS011;459;48.676;9.034;2022-11-20T16:21:53;6.53;;;3.03;;
944;SDS011;459;48.676;9.034;2022-11-20T16:24:18;3.00;;;2.73;;
944;SDS011;459;48.676;9.034;2022-11-20T16:26:44;2.83;;;2.63;;
944;SDS011;459;48.676;9.034;2022-11-20T16:29:09;7.43;;;2.27;;
944;SDS011;459;48.676;9.034;2022-11-20T16:31:35;1.57;;;1.43;;
944;SDS011;459;48.676;9.034;2022-11-20T16:34:02;3.00;;;2.57;;
944;SDS011;459;48.676;9.034;2022-11-20T16:36:28;4.37;;;2.90;;
944;SDS011;459;48.676;9.034;2022-11-20T16:38:55;3.63;;;3.33;;
944;SDS011;459;48.676;9.034;2022-11-20T16:41:20;3.10;;;2.10;;
944;SDS011;459;48.676;9.034;2022-11-20T16:43:49;2.93;;;2.57;;
944;SDS011;459;48.676;9.034;2022-11-20T16:46:16;2.47;;;2.27;;
944;SDS011;459;48.676;9.034;2022-11-20T16:48:41;2.33;;;2.13;;
944;SDS011;459;48.676;9.034;2022-11-20T16:51:10;2.07;;;1.87;;
944;SDS011;459;48.676;9.034;2022-11-20T16:53:35;2.87;;;2.63;;
944;SDS011;459;48.676;9.034;2022-11-20T16:56:14;3.20;;;2.77;;
944;SDS011;459;48.676;9.034;2022-11-20T16:58:41;2.33;;;2.13;;
944;SDS011;459;48.676;9.034;2022-11-20T17:01:10;4.40;;;2.80;;
944;SDS011;459;48.676;9.034;2022-11-20T17:03:39;4.50;;;3.47;;